Details From EGLC - London City
To GCGM - La Gomera
Flight Number -
Tags Generated
Created
Modified
Stats Distance 1,611 nm / 2,983 km
Max Altitude 0 ft / 0 m
Waypoints 5
Social Downloads 0
Likes 0
Share VATSIM

Download

Looking for another format? Having issues loading an existing format? Contact us
Advertisement - Login to hide

Notes

Generated

Route

EGLC TERKU TURON LGM GCGM

ID Type Via Altitude Latitude Longitude Leg Dist Tot Dist Heading (true) Name
O EGLC APT - 0 ft / 0 m 51.50558˚ 0.04414˚ - 0 nm - -
TERKU FIX - 0 ft / 0 m 48.03000˚ -3.61667˚ 252 nm 252 nm 216° / 213° -
TURON FIX - 0 ft / 0 m 42.06793˚ -8.56342˚ 414 nm 667 nm 212° / 209° -
LGM VOR - 0 ft / 0 m 28.02874˚ -17.21487˚ 943 nm 1610 nm 209° / 204° LA GOMERA VOR-DME
O GCGM APT - 0 ft / 0 m 28.02859˚ -17.22214˚ 0 nm 1610 nm 269° / 269° -

Altitude Profile

Advertisement - Login to hide

Weather


0- 5 10 15 20 25 30 35+ Temperature / ° C

Clouds and Precipitation
Forecast for 2017-12-13 06:00 UTC. Updated 2 hours ago

Ground ~20,000 ft ~40,000 ft Winds

EGLC

Details ICAO EGLC (LCY)
Name London City
Region United Kingdom
Timezone Europe/London (UTC+0.0)
Stats Elevation 19 ft / 6 m (AMSL)
Location 51.505231° 0.055175°
Runways 1
Magnetic Variation 0.385° W

METAR

EGLC 130720Z AUTO 24010KT 9999 NCD 07/04 Q1001

Decode

TAF

Not found

Departure Runways

ID Width Length Bearing (true) Bearing (mag) Surface Threshold Offset Overrun Length
09 98 ft / 30 m 4,931 ft / 1,503 m 92.89° 93.27° Concrete 322 ft / 98 m 164 ft / 50 m
27 98 ft / 30 m 4,931 ft / 1,503 m 272.91° 273.29° Concrete 243 ft / 74 m 279 ft / 85 m

GCGM

Details ICAO GCGM (GMZ)
Name La Gomera
Region Canary Islands
Timezone Atlantic/Canary (UTC+0.0)
Stats Elevation 715 ft / 218 m (AMSL)
Location 28.029627° -17.214603°
Runways 1
Magnetic Variation 5.360° W

METAR

GCGM 130700Z VRB11G28KT 9999 FEW030 17/08 Q1021 RMK R09/VRB08G22KT ARP/VRB10G28KT

Decode

TAF

TAF AMD GCGM 130627Z 1306/1403 02020KT 9999 SCT035 TX21/1314Z TN16/1306Z TEMPO 1306/1321 02020G30KT TEMPO 1306/1321 03020G40KT PROB40 TEMPO 1306/1321 VRB25G50KT

Decode

Destination Runways

ID Width Length Bearing (true) Bearing (mag) Surface Threshold Offset Overrun Length
09 98 ft / 30 m 4,914 ft / 1,498 m 81.17° 86.53° Asphalt 0 ft / 0 m 0 ft / 0 m
27 98 ft / 30 m 4,914 ft / 1,498 m 261.18° 266.54° Asphalt 0 ft / 0 m 0 ft / 0 m

Popular Alternatives